UIII

Irkutsk Airport

Airport
ICAO code
UIII
IATA Code
IKT
Summary
ICAO Region
APAC
ICAO Territory
Location

Irkutsk, Russia,

Serving
Irkutsk
Elevation
1675 ft
Coordinates
52° 16' 5" N , 104° 23' 20" E
KCC
Metar
Observation
UIII 010900Z VRB01MPS 9000 SCT040 M13/M20 Q1018 R30/820550 NOSIG RMK QFE718/0958
Station
Irkutsk
Date/Time
2022-12-01 09:00:00
Lowest cloud amount
scattered clouds
Temperature
-13°C
Dew point
-20°C
Humidity
55%
QNH
1018 hPa
Weather condition
n/a

Description

International and domestic airport serving the Russian city of Irkutsk.

Climatology

Cool continental climate/Subarctic climate (Köppen climate classification Dwc)

Runways

Designator Length Width Surface Rops
12/30 3165 45 CON Yes/Yes

Airport map

Aerial View

Airport accidents

SKYbrary Partners:

Safety knowledge contributed by: